Terminal Aerodrome Forecast
Issued by NWS Shreveport, LA

Home | Current Version | Previous Version | Text Only | Print | Product List | Glossary On
Versions: 1 2 3 4 5 6 7 8 9 10 11 12 13 14 15 16 17 18 19
129
FTUS44 KSHV 241130
TAFTXK
TAF
KTXK 241130Z 2412/2512 20012G20KT P6SM SKC
     FM241400 23012G20KT P6SM BKN015 OVC025
     FM241700 25012G20KT P6SM BKN025 OVC035
     FM242000 30012G18KT P6SM SCT030
     FM250000 32008KT P6SM SKC=

USA.gov is the U.S. government's official web portal to all federal, state and local government web resources and services.